Time;durP1;ratioP1;P1;durP2;ratioP2;P2;SDS_P1;SDS_P2;PMS_P1;PMS_P2;Temp;Humidity;BMP_temperature;BMP_pressure;BME280_temperature;BME280_humidity;BME280_pressure;Samples;Min_cycle;Max_cycle;Signal;HPM_P1;HPM_P2
2021/11/28 00:00:43;;;;;;;3.47;2.30;;;;;;;-140.79;100.00;63287.88;5033147;28;20033;-54
2021/11/28 00:03:09;;;;;;;3.63;2.50;;;;;;;-140.79;100.00;63287.88;5033116;28;20032;-54
2021/11/28 00:05:35;;;;;;;4.25;2.65;;;;;;;-140.79;100.00;63287.88;5032998;28;20054;-53
2021/11/28 00:10:48;;;;;;;3.45;2.35;;;;;;;-140.79;100.00;63287.88;5033225;28;20025;-51
2021/11/28 00:13:25;;;;;;;3.75;2.35;;;;;;;-140.79;100.00;63287.88;5032957;28;20053;-51
2021/11/28 00:15:50;;;;;;;3.78;2.45;;;;;;;-140.79;100.00;63287.88;5032860;28;20096;-51
2021/11/28 00:18:15;;;;;;;3.58;2.35;;;;;;;-140.79;100.00;63287.88;5032806;28;20550;-52
2021/11/28 00:20:41;;;;;;;3.95;2.58;;;;;;;-140.79;100.00;63287.88;5032710;28;20431;-53
2021/11/28 00:23:06;;;;;;;3.53;2.50;;;;;;;-140.79;100.00;63287.88;5032784;28;20052;-51
2021/11/28 00:25:32;;;;;;;4.40;2.40;;;;;;;-140.79;100.00;63287.88;5032596;28;20028;-54
2021/11/28 00:27:57;;;;;;;4.00;2.58;;;;;;;-140.79;100.00;63287.88;5032923;28;20025;-54
2021/11/28 00:30:25;;;;;;;4.45;2.47;;;;;;;-140.79;100.00;63287.88;5032791;28;20021;-53
2021/11/28 00:32:51;;;;;;;4.20;2.40;;;;;;;-140.79;100.00;63287.88;5032651;28;20028;-54
2021/11/28 00:35:16;;;;;;;3.63;2.88;;;;;;;-140.79;100.00;63287.88;5032822;28;20033;-53
2021/11/28 00:37:42;;;;;;;3.53;2.45;;;;;;;-140.79;100.00;63287.88;5032500;28;20465;-54
2021/11/28 00:40:08;;;;;;;3.67;2.33;;;;;;;-140.79;100.00;63287.88;5032661;28;20044;-54
2021/11/28 00:42:33;;;;;;;3.58;2.60;;;;;;;-140.79;100.00;63287.88;5032388;28;20090;-53
2021/11/28 00:44:59;;;;;;;3.80;2.80;;;;;;;-140.79;100.00;63287.88;5032383;28;20014;-51
2021/11/28 00:47:24;;;;;;;4.20;2.60;;;;;;;-140.79;100.00;63287.88;5032385;28;20052;-52
2021/11/28 00:50:03;;;;;;;3.13;2.38;;;;;;;-140.79;100.00;63287.88;5032262;28;20018;-52
2021/11/28 00:52:28;;;;;;;3.78;2.40;;;;;;;-140.79;100.00;63287.88;5032311;28;20132;-53
2021/11/28 00:54:54;;;;;;;4.63;2.72;;;;;;;-140.79;100.00;63287.88;5032285;28;20480;-50
2021/11/28 00:57:19;;;;;;;4.00;2.33;;;;;;;-140.79;100.00;63287.88;5032056;28;20479;-52
2021/11/28 00:59:45;;;;;;;3.90;2.45;;;;;;;-140.79;100.00;63287.88;5032161;28;20048;-51
2021/11/28 01:02:10;;;;;;;3.70;2.65;;;;;;;-140.79;100.00;63287.88;5032007;28;20079;-52
2021/11/28 01:04:37;;;;;;;3.80;2.47;;;;;;;-140.79;100.00;63287.88;5032049;28;20437;-54
2021/11/28 01:07:03;;;;;;;4.72;2.70;;;;;;;-140.79;100.00;63287.88;5032032;28;20035;-53
2021/11/28 01:09:29;;;;;;;3.67;2.60;;;;;;;-140.79;100.00;63287.88;5031943;28;20477;-51
2021/11/28 01:11:54;;;;;;;3.63;2.53;;;;;;;-140.79;100.00;63287.88;5031909;28;20107;-53
2021/11/28 01:14:19;;;;;;;3.95;2.70;;;;;;;-140.79;100.00;63287.88;5031856;28;20029;-51
2021/11/28 01:16:45;;;;;;;3.88;2.80;;;;;;;-140.79;100.00;63287.88;5031786;28;20034;-51
2021/11/28 01:19:10;;;;;;;4.47;2.72;;;;;;;-140.79;100.00;63287.88;5031587;28;20025;-51
2021/11/28 01:21:37;;;;;;;4.38;2.25;;;;;;;-140.79;100.00;63287.88;5031801;28;20034;-51
2021/11/28 01:24:03;;;;;;;3.72;2.15;;;;;;;-140.79;100.00;63287.88;5031201;28;20130;-51
2021/11/28 01:26:31;;;;;;;3.72;2.65;;;;;;;-140.79;100.00;63287.88;5031707;28;20061;-53
2021/11/28 01:28:56;;;;;;;5.00;2.72;;;;;;;-140.79;100.00;63287.88;5031325;28;20044;-50
2021/11/28 01:31:22;;;;;;;4.40;2.80;;;;;;;-140.79;100.00;63287.88;5031371;28;20037;-51
2021/11/28 01:33:47;;;;;;;3.90;2.75;;;;;;;-140.79;100.00;63287.88;5031387;28;20064;-52
2021/11/28 01:36:13;;;;;;;4.15;2.88;;;;;;;-140.79;100.00;63287.88;5031601;28;20030;-52
2021/11/28 01:38:38;;;;;;;4.50;2.60;;;;;;;-140.79;100.00;63287.88;5032094;28;20044;-53
2021/11/28 01:41:04;;;;;;;4.00;2.60;;;;;;;-140.79;100.00;63287.88;5032267;28;20475;-52
2021/11/28 01:43:29;;;;;;;4.28;2.70;;;;;;;-140.79;100.00;63287.88;5032163;28;20029;-52
2021/11/28 01:45:55;;;;;;;4.25;2.70;;;;;;;-140.79;100.00;63287.88;5031650;28;20108;-53
2021/11/28 01:48:20;;;;;;;5.18;2.80;;;;;;;-140.79;100.00;63287.88;5031337;28;20041;-51
2021/11/28 01:50:47;;;;;;;4.57;3.20;;;;;;;-140.79;100.00;63287.88;5031198;28;20034;-53
2021/11/28 01:53:16;;;;;;;4.15;2.78;;;;;;;-140.79;100.00;63287.88;5031066;28;20029;-52
2021/11/28 01:55:42;;;;;;;4.75;2.40;;;;;;;-140.79;100.00;63287.88;5031016;28;20413;-52
2021/11/28 01:58:08;;;;;;;3.95;2.63;;;;;;;-140.79;100.00;63287.88;5030565;28;20060;-53
2021/11/28 02:00:54;;;;;;;4.10;2.95;;;;;;;-140.79;100.00;63287.88;5030824;28;20380;-53
2021/11/28 02:03:20;;;;;;;5.18;2.90;;;;;;;-140.79;100.00;63287.88;5046333;28;20034;-53
2021/11/28 02:05:50;;;;;;;4.10;2.67;;;;;;;-140.79;100.00;63287.88;5030944;28;20458;-54
2021/11/28 02:08:15;;;;;;;;;;;;;;;-140.79;100.00;63287.88;5031636;28;20144;-53
2021/11/28 02:10:41;;;;;;;3.75;2.60;;;;;;;-140.79;100.00;63287.88;5031645;28;19962;-52
2021/11/28 02:13:06;;;;;;;4.55;3.00;;;;;;;-140.79;100.00;63287.88;5031555;28;20032;-54
2021/11/28 02:15:32;;;;;;;4.20;2.80;;;;;;;-140.79;100.00;63287.88;5031330;28;20036;-53
2021/11/28 02:17:57;;;;;;;4.13;2.88;;;;;;;-140.79;100.00;63287.88;5047428;28;20055;-52
2021/11/28 02:20:28;;;;;;;4.25;2.65;;;;;;;-140.79;100.00;63287.88;5030821;28;20486;-52
2021/11/28 02:22:54;;;;;;;4.00;2.70;;;;;;;-140.79;100.00;63287.88;5030569;28;20033;-52
2021/11/28 02:25:20;;;;;;;4.03;2.70;;;;;;;-140.79;100.00;63287.88;5029298;28;20488;-53
2021/11/28 02:27:45;;;;;;;4.60;3.10;;;;;;;-140.79;100.00;63287.88;5030565;28;20025;-53
2021/11/28 02:30:12;;;;;;;5.03;3.20;;;;;;;-140.79;100.00;63287.88;5030530;28;20485;-52
2021/11/28 02:32:37;;;;;;;3.83;2.67;;;;;;;-140.79;100.00;63287.88;5045692;28;20532;-52
2021/11/28 02:35:03;;;;;;;4.07;3.00;;;;;;;-140.79;100.00;63287.88;5030453;28;20025;-53
2021/11/28 02:37:28;;;;;;;4.45;3.05;;;;;;;-140.79;100.00;63287.88;5029781;28;20033;-53
2021/11/28 02:39:54;;;;;;;4.43;3.00;;;;;;;-140.79;100.00;63287.88;5029049;28;20017;-53
2021/11/28 02:42:20;;;;;;;4.82;3.00;;;;;;;-140.79;100.00;63287.88;5030294;28;20033;-54
2021/11/28 02:44:46;;;;;;;4.07;2.92;;;;;;;-140.79;100.00;63287.88;5030199;28;20017;-53
2021/11/28 02:47:12;;;;;;;3.80;2.72;;;;;;;-140.79;100.00;63287.88;5030104;28;20025;-52
2021/11/28 02:49:37;;;;;;;5.28;3.00;;;;;;;-140.79;100.00;63287.88;5030364;28;20013;-52
2021/11/28 02:52:03;;;;;;;4.88;2.88;;;;;;;-140.79;100.00;63287.88;5030301;28;20037;-53
2021/11/28 02:54:28;;;;;;;3.90;2.70;;;;;;;-140.79;100.00;63287.88;5030211;28;20021;-53
2021/11/28 02:56:54;;;;;;;4.47;3.00;;;;;;;-140.79;100.00;63287.88;5030049;28;20029;-52
2021/11/28 02:59:19;;;;;;;3.83;2.90;;;;;;;-140.79;100.00;63287.88;5030291;28;20492;-51
2021/11/28 03:01:45;;;;;;;4.22;2.75;;;;;;;-140.79;100.00;63287.88;5029731;28;20467;-53
2021/11/28 03:04:11;;;;;;;3.45;2.42;;;;;;;-140.79;100.00;63287.88;5030142;28;20415;-52
2021/11/28 03:06:36;;;;;;;4.90;2.72;;;;;;;-140.79;100.00;63287.88;5030137;28;20049;-52
2021/11/28 03:09:02;;;;;;;3.83;2.72;;;;;;;-140.79;100.00;63287.88;5030093;28;20492;-52
2021/11/28 03:11:27;;;;;;;4.00;2.80;;;;;;;-140.79;100.00;63287.88;5030200;28;20111;-53
2021/11/28 03:13:53;;;;;;;4.65;3.20;;;;;;;-140.79;100.00;63287.88;5030223;28;20022;-52
2021/11/28 03:16:20;;;;;;;4.30;2.78;;;;;;;-140.79;100.00;63287.88;5030115;28;20432;-52
2021/11/28 03:18:46;;;;;;;3.92;2.78;;;;;;;-140.79;100.00;63287.88;5029845;28;20112;-52
2021/11/28 03:21:14;;;;;;;4.88;2.95;;;;;;;-140.79;100.00;63287.88;5029975;28;20057;-53
2021/11/28 03:23:41;;;;;;;4.75;3.08;;;;;;;-140.79;100.00;63287.88;5029909;28;20014;-52
2021/11/28 03:26:08;;;;;;;4.68;2.90;;;;;;;-140.79;100.00;63287.88;5030021;28;20032;-52
2021/11/28 03:28:34;;;;;;;4.53;3.00;;;;;;;-140.79;100.00;63287.88;5029872;28;20108;-52
2021/11/28 03:31:00;;;;;;;5.65;2.70;;;;;;;-140.79;100.00;63287.88;5029927;28;20026;-51
2021/11/28 03:33:25;;;;;;;3.47;2.65;;;;;;;-140.79;100.00;63287.88;5029810;28;20041;-52
2021/11/28 03:35:50;;;;;;;4.70;2.75;;;;;;;-140.79;100.00;63287.88;5028792;28;20430;-53
2021/11/28 03:38:16;;;;;;;4.35;3.00;;;;;;;-140.79;100.00;63287.88;5029856;28;20057;-51
2021/11/28 03:40:41;;;;;;;4.30;2.90;;;;;;;-140.79;100.00;63287.88;5028595;28;20061;-52
2021/11/28 03:43:07;;;;;;;3.75;2.70;;;;;;;-140.79;100.00;63287.88;5029912;28;20029;-52
2021/11/28 03:45:32;;;;;;;4.43;2.85;;;;;;;-140.79;100.00;63287.88;5029860;28;20026;-53
2021/11/28 03:47:58;;;;;;;4.65;3.15;;;;;;;-140.79;100.00;63287.88;5031503;28;20481;-53
2021/11/28 03:50:23;;;;;;;4.22;3.03;;;;;;;-140.79;100.00;63287.88;5033393;28;20397;-51
2021/11/28 03:52:49;;;;;;;4.03;2.90;;;;;;;-140.79;100.00;63287.88;5033492;28;20415;-52
2021/11/28 03:55:16;;;;;;;3.97;2.90;;;;;;;-140.79;100.00;63287.88;5033443;28;20484;-52
2021/11/28 03:57:41;;;;;;;4.18;2.90;;;;;;;-140.79;100.00;63287.88;5031927;28;20053;-51
2021/11/28 04:00:09;;;;;;;4.38;2.92;;;;;;;-140.79;100.00;63287.88;5033213;28;20025;-51
2021/11/28 04:02:34;;;;;;;4.53;2.97;;;;;;;-140.79;100.00;63287.88;5033063;28;20021;-50
2021/11/28 04:04:59;;;;;;;4.00;3.08;;;;;;;-140.79;100.00;63287.88;5033054;28;20017;-53
2021/11/28 04:07:25;;;;;;;4.32;2.85;;;;;;;-140.79;100.00;63287.88;5033007;28;20463;-51
2021/11/28 04:09:50;;;;;;;4.75;2.55;;;;;;;-140.79;100.00;63287.88;5033062;28;20549;-53
2021/11/28 04:12:16;;;;;;;4.25;2.80;;;;;;;-140.79;100.00;63287.88;5032442;28;20048;-51
2021/11/28 04:14:41;;;;;;;4.63;2.90;;;;;;;-140.79;100.00;63287.88;5032956;28;20030;-54
2021/11/28 04:17:07;;;;;;;4.20;2.83;;;;;;;-140.79;100.00;63287.88;5032720;28;20492;-53
2021/11/28 04:19:32;;;;;;;3.97;2.85;;;;;;;-140.79;100.00;63287.88;5032930;28;20415;-54
2021/11/28 04:21:58;;;;;;;4.43;2.75;;;;;;;-140.79;100.00;63287.88;5032632;28;20167;-53
2021/11/28 04:24:23;;;;;;;5.00;3.20;;;;;;;-140.79;100.00;63287.88;5032694;28;20033;-54
2021/11/28 04:26:49;;;;;;;4.78;3.00;;;;;;;-140.79;100.00;63287.88;5032692;28;20040;-52
2021/11/28 04:29:17;;;;;;;4.88;3.25;;;;;;;-140.79;100.00;63287.88;5032599;28;20017;-52
2021/11/28 04:31:42;;;;;;;4.05;2.95;;;;;;;-140.79;100.00;63287.88;5032714;28;20033;-53
2021/11/28 04:34:07;;;;;;;4.47;3.00;;;;;;;-140.79;100.00;63287.88;5032542;28;20021;-53
2021/11/28 04:36:33;;;;;;;4.15;2.85;;;;;;;-140.79;100.00;63287.88;5032635;28;20025;-52
2021/11/28 04:38:58;;;;;;;4.88;3.05;;;;;;;-140.79;100.00;63287.88;5032361;28;20034;-52
2021/11/28 04:41:24;;;;;;;4.22;3.20;;;;;;;-140.79;100.00;63287.88;5047841;28;20029;-52
2021/11/28 04:43:49;;;;;;;3.97;3.13;;;;;;;-140.79;100.00;63287.88;5032349;28;20026;-53
2021/11/28 04:46:15;;;;;;;5.07;3.03;;;;;;;-140.79;100.00;63287.88;5032253;28;20060;-52
2021/11/28 04:48:40;;;;;;;4.15;2.80;;;;;;;-140.79;100.00;63287.88;5032326;28;20025;-52
2021/11/28 04:51:05;;;;;;;4.88;2.90;;;;;;;-140.79;100.00;63287.88;5032349;28;20029;-53
2021/11/28 04:53:31;;;;;;;4.40;3.30;;;;;;;-140.79;100.00;63287.88;5032208;28;20465;-52
2021/11/28 04:55:56;;;;;;;5.05;3.33;;;;;;;-140.79;100.00;63287.88;5032125;28;20022;-52
2021/11/28 04:58:22;;;;;;;4.78;3.08;;;;;;;-140.79;100.00;63287.88;5031589;28;20049;-53
2021/11/28 05:00:47;;;;;;;4.30;2.85;;;;;;;-140.79;100.00;63287.88;5031591;28;20033;-52
2021/11/28 05:03:13;;;;;;;4.60;2.80;;;;;;;-140.79;100.00;63287.88;5032080;28;20111;-52
2021/11/28 05:05:38;;;;;;;4.57;2.80;;;;;;;-140.79;100.00;63287.88;5032100;28;20018;-53
2021/11/28 05:08:04;;;;;;;4.60;3.00;;;;;;;-140.79;100.00;63287.88;5032155;28;20029;-53
2021/11/28 05:10:29;;;;;;;4.95;3.58;;;;;;;-140.79;100.00;63287.88;5031935;28;20484;-53
2021/11/28 05:12:54;;;;;;;4.50;2.70;;;;;;;-140.79;100.00;63287.88;5031843;28;20037;-52
2021/11/28 05:15:20;;;;;;;4.88;3.05;;;;;;;-140.79;100.00;63287.88;5031782;28;20052;-52
2021/11/28 05:17:45;;;;;;;4.45;3.15;;;;;;;-140.79;100.00;63287.88;5031745;28;20037;-52
2021/11/28 05:20:11;;;;;;;4.47;3.03;;;;;;;-140.79;100.00;63287.88;5031732;28;20091;-52
2021/11/28 05:22:37;;;;;;;4.93;2.70;;;;;;;-140.79;100.00;63287.88;5031726;28;20029;-52
2021/11/28 05:25:04;;;;;;;4.20;2.78;;;;;;;-140.79;100.00;63287.88;5031630;28;20029;-53
2021/11/28 05:27:29;;;;;;;4.50;2.97;;;;;;;-140.79;100.00;63287.88;5047138;28;20033;-53
2021/11/28 05:29:55;;;;;;;4.40;2.80;;;;;;;-140.79;100.00;63287.88;5031495;28;20037;-53
2021/11/28 05:32:20;;;;;;;4.35;2.90;;;;;;;-140.79;100.00;63287.88;5030423;28;20083;-53
2021/11/28 05:34:46;;;;;;;3.95;2.92;;;;;;;-140.79;100.00;63287.88;5031388;28;20055;-53
2021/11/28 05:37:11;;;;;;;3.78;2.72;;;;;;;-140.79;100.00;63287.88;5031370;28;20026;-52
2021/11/28 05:39:38;;;;;;;4.53;3.00;;;;;;;-140.79;100.00;63287.88;5031119;28;20033;-51
2021/11/28 05:42:03;;;;;;;3.90;2.75;;;;;;;-140.79;100.00;63287.88;5031377;28;20072;-52
2021/11/28 05:44:29;;;;;;;4.22;3.00;;;;;;;-140.79;100.00;63287.88;5031326;28;20534;-52
2021/11/28 05:46:54;;;;;;;4.03;2.45;;;;;;;-140.79;100.00;63287.88;5031236;28;20101;-53
2021/11/28 05:49:20;;;;;;;3.90;2.67;;;;;;;-140.79;100.00;63287.88;5031133;28;20026;-52
2021/11/28 05:51:45;;;;;;;4.18;3.00;;;;;;;-140.79;100.00;63287.88;5031070;28;20101;-52
2021/11/28 05:54:11;;;;;;;4.72;3.10;;;;;;;-140.79;100.00;63287.88;5031041;28;20033;-53
2021/11/28 05:56:36;;;;;;;4.35;2.90;;;;;;;-140.79;100.00;63287.88;5030981;28;20021;-53
2021/11/28 05:59:02;;;;;;;4.65;2.80;;;;;;;-140.79;100.00;63287.88;5030683;28;20056;-53
2021/11/28 06:01:27;;;;;;;4.10;2.70;;;;;;;-140.79;100.00;63287.88;5030979;28;20448;-50
2021/11/28 06:03:52;;;;;;;4.22;2.90;;;;;;;-140.79;100.00;63287.88;5030971;28;20397;-53
2021/11/28 06:06:18;;;;;;;4.75;3.13;;;;;;;-140.79;100.00;63287.88;5030901;28;20482;-53
2021/11/28 06:08:43;;;;;;;4.47;3.20;;;;;;;-140.79;100.00;63287.88;5030746;28;20029;-53
2021/11/28 06:11:09;;;;;;;4.10;2.78;;;;;;;-140.79;100.00;63287.88;5030605;28;20560;-51
2021/11/28 06:13:34;;;;;;;4.30;2.92;;;;;;;-140.79;100.00;63287.88;5030834;28;20777;-52
2021/11/28 06:16:00;;;;;;;4.65;2.95;;;;;;;-140.79;100.00;63287.88;5030538;28;20037;-51
2021/11/28 06:18:25;;;;;;;3.95;2.95;;;;;;;-140.79;100.00;63287.88;5030666;28;20032;-51
2021/11/28 06:20:51;;;;;;;3.53;2.40;;;;;;;-140.79;100.00;63287.88;5029408;28;20416;-53
2021/11/28 06:23:16;;;;;;;5.00;3.28;;;;;;;-140.79;100.00;63287.88;5030698;28;20026;-53
2021/11/28 06:25:42;;;;;;;4.05;2.78;;;;;;;-140.79;100.00;63287.88;5030702;28;20018;-52
2021/11/28 06:28:07;;;;;;;4.00;2.63;;;;;;;-140.79;100.00;63287.88;5030774;28;20021;-55
2021/11/28 06:30:33;;;;;;;4.10;2.70;;;;;;;-140.79;100.00;63287.88;5030655;28;20449;-53
2021/11/28 06:32:58;;;;;;;4.70;3.03;;;;;;;-140.79;100.00;63287.88;5029511;28;20030;-51
2021/11/28 06:35:24;;;;;;;5.07;3.05;;;;;;;-140.79;100.00;63287.88;5030597;28;20106;-52
2021/11/28 06:37:49;;;;;;;4.85;3.17;;;;;;;-140.79;100.00;63287.88;5030558;28;20017;-52
2021/11/28 06:40:15;;;;;;;4.03;2.65;;;;;;;-140.79;100.00;63287.88;5030429;28;20456;-54
2021/11/28 06:42:40;;;;;;;4.07;2.72;;;;;;;-140.79;100.00;63287.88;5030395;28;20392;-54
2021/11/28 06:45:06;;;;;;;4.28;2.90;;;;;;;-140.79;100.00;63287.88;5030185;28;20470;-52
2021/11/28 06:47:32;;;;;;;5.38;3.00;;;;;;;-140.79;100.00;63287.88;5030254;28;20061;-52
2021/11/28 06:49:57;;;;;;;4.63;2.78;;;;;;;-140.79;100.00;63287.88;5030117;28;20018;-53
2021/11/28 06:52:23;;;;;;;5.50;3.05;;;;;;;-140.79;100.00;63287.88;5030223;28;20087;-52
2021/11/28 06:54:48;;;;;;;5.07;2.88;;;;;;;-140.79;100.00;63287.88;5030260;28;20010;-54
2021/11/28 06:57:13;;;;;;;4.50;2.80;;;;;;;-140.79;100.00;63287.88;5029876;28;20097;-52
2021/11/28 06:59:39;;;;;;;4.47;2.78;;;;;;;-140.79;100.00;63287.88;5030165;28;20508;-54
2021/11/28 07:02:04;;;;;;;3.25;2.50;;;;;;;-140.79;100.00;63287.88;5029981;28;20392;-53
2021/11/28 07:04:30;;;;;;;4.40;2.78;;;;;;;-140.79;100.00;63287.88;5030114;28;20022;-54
2021/11/28 07:06:55;;;;;;;5.07;2.50;;;;;;;-140.79;100.00;63287.88;5030107;28;20041;-51
2021/11/28 07:09:21;;;;;;;3.67;2.60;;;;;;;-140.79;100.00;63287.88;5030067;28;20041;-54
2021/11/28 07:11:47;;;;;;;4.63;3.08;;;;;;;-140.79;100.00;63287.88;5045538;28;20075;-53
2021/11/28 07:14:12;;;;;;;4.00;2.72;;;;;;;-140.79;100.00;63287.88;5030016;28;20025;-53
2021/11/28 07:16:38;;;;;;;3.67;2.60;;;;;;;-140.79;100.00;63287.88;5029942;28;20026;-53
2021/11/28 07:19:03;;;;;;;4.00;2.70;;;;;;;-140.79;100.00;63287.88;5029973;28;20052;-52
2021/11/28 07:21:29;;;;;;;3.47;2.42;;;;;;;-140.79;100.00;63287.88;5030061;28;20041;-52
2021/11/28 07:23:54;;;;;;;4.45;2.80;;;;;;;-140.79;100.00;63287.88;5033472;28;20013;-52
2021/11/28 07:26:19;;;;;;;4.07;2.42;;;;;;;-140.79;100.00;63287.88;5033908;28;20462;-52
2021/11/28 07:28:45;;;;;;;4.15;2.60;;;;;;;-140.79;100.00;63287.88;5033783;28;20025;-52
2021/11/28 07:31:11;;;;;;;3.50;2.45;;;;;;;-140.79;100.00;63287.88;5033636;28;20545;-52
2021/11/28 07:33:37;;;;;;;4.63;2.45;;;;;;;-140.79;100.00;63287.88;5033680;28;20025;-53
2021/11/28 07:36:04;;;;;;;3.78;2.60;;;;;;;-140.79;100.00;63287.88;5033500;28;20495;-53
2021/11/28 07:38:29;;;;;;;4.65;2.65;;;;;;;-140.79;100.00;63287.88;5033537;28;20389;-53
2021/11/28 07:40:55;;;;;;;3.38;2.50;;;;;;;-140.79;100.00;63287.88;5033516;28;20037;-51
2021/11/28 07:43:20;;;;;;;4.43;2.92;;;;;;;-140.79;100.00;63287.88;5033435;28;20033;-53
2021/11/28 07:45:46;;;;;;;4.18;2.70;;;;;;;-140.79;100.00;63287.88;5033324;28;20025;-53
2021/11/28 07:48:11;;;;;;;4.28;2.60;;;;;;;-140.79;100.00;63287.88;5033582;28;20048;-53
2021/11/28 07:50:37;;;;;;;4.63;2.40;;;;;;;-140.79;100.00;63287.88;5033439;28;20039;-52
2021/11/28 07:53:02;;;;;;;3.75;2.45;;;;;;;-140.79;100.00;63287.88;5033355;28;20032;-53
2021/11/28 07:55:28;;;;;;;2.90;2.10;;;;;;;-140.79;100.00;63287.88;5033161;28;20032;-52
2021/11/28 07:57:53;;;;;;;4.60;2.70;;;;;;;-140.79;100.00;63287.88;5033041;28;20053;-53
2021/11/28 08:00:19;;;;;;;3.67;2.60;;;;;;;-140.79;100.00;63287.88;5031709;28;20038;-52
2021/11/28 08:02:44;;;;;;;3.85;2.47;;;;;;;-140.79;100.00;63287.88;5033184;28;20036;-53
2021/11/28 08:05:10;;;;;;;3.90;2.60;;;;;;;-140.79;100.00;63287.88;5033217;28;20025;-51
2021/11/28 08:07:35;;;;;;;3.05;2.20;;;;;;;-140.79;100.00;63287.88;5033517;28;20038;-53
2021/11/28 08:10:01;;;;;;;3.75;2.30;;;;;;;-140.79;100.00;63287.88;5033355;28;20025;-52
2021/11/28 08:12:26;;;;;;;3.38;2.30;;;;;;;-140.79;100.00;63287.88;5033376;28;20025;-53
2021/11/28 08:14:52;;;;;;;3.88;2.45;;;;;;;-140.79;100.00;63287.88;5033084;28;20025;-54
2021/11/28 08:17:18;;;;;;;3.75;2.47;;;;;;;-140.79;100.00;63287.88;5032891;28;20025;-52
2021/11/28 08:19:43;;;;;;;3.97;2.55;;;;;;;-140.79;100.00;63287.88;5048286;28;20029;-52
2021/11/28 08:22:09;;;;;;;3.53;2.20;;;;;;;-140.79;100.00;63287.88;5032812;28;20464;-53
2021/11/28 08:24:34;;;;;;;3.33;2.38;;;;;;;-140.79;100.00;63287.88;5032891;28;20030;-53
2021/11/28 08:27:00;;;;;;;3.42;2.35;;;;;;;-140.79;100.00;63287.88;5032672;28;20542;-52
2021/11/28 08:29:26;;;;;;;3.58;2.40;;;;;;;-140.79;100.00;63287.88;5032685;28;20474;-53
2021/11/28 08:31:51;;;;;;;3.28;2.30;;;;;;;-140.79;100.00;63287.88;5031268;28;20032;-53
2021/11/28 08:34:17;;;;;;;3.40;2.45;;;;;;;-140.79;100.00;63287.88;5031245;28;20034;-52
2021/11/28 08:36:42;;;;;;;3.88;2.28;;;;;;;-140.79;100.00;63287.88;5033140;28;20048;-52
2021/11/28 08:39:08;;;;;;;3.58;2.42;;;;;;;-140.79;100.00;63287.88;5033032;28;20037;-51
2021/11/28 08:41:33;;;;;;;4.32;2.60;;;;;;;-140.79;100.00;63287.88;5032858;28;20127;-52
2021/11/28 08:43:59;;;;;;;3.15;2.17;;;;;;;-140.79;100.00;63287.88;5033554;28;20041;-53
2021/11/28 08:46:24;;;;;;;4.30;2.20;;;;;;;-140.79;100.00;63287.88;5032742;28;20029;-52
2021/11/28 08:48:53;;;;;;;2.78;2.00;;;;;;;-140.79;100.00;63287.88;5032381;28;20495;-52
2021/11/28 08:51:19;;;;;;;3.17;2.17;;;;;;;-140.79;100.00;63287.88;5032324;28;20076;-51
2021/11/28 08:53:44;;;;;;;3.28;2.30;;;;;;;-140.79;100.00;63287.88;5032195;28;20124;-52
2021/11/28 08:56:10;;;;;;;4.10;2.20;;;;;;;-140.79;100.00;63287.88;5032695;28;20038;-52
2021/11/28 08:58:35;;;;;;;4.07;2.45;;;;;;;-140.79;100.00;63287.88;5032123;28;20104;-53
2021/11/28 09:01:00;;;;;;;3.42;2.10;;;;;;;-140.79;100.00;63287.88;5031026;28;20091;-52
2021/11/28 09:03:26;;;;;;;2.75;2.08;;;;;;;-140.79;100.00;63287.88;5047498;28;20021;-52
2021/11/28 09:05:51;;;;;;;3.83;2.45;;;;;;;-140.79;100.00;63287.88;5047473;28;20079;-52
2021/11/28 09:08:17;;;;;;;3.90;2.20;;;;;;;-140.79;100.00;63287.88;5031859;28;20051;-51
2021/11/28 09:10:43;;;;;;;3.10;2.40;;;;;;;-140.79;100.00;63287.88;5031804;28;20029;-52
2021/11/28 09:13:09;;;;;;;3.03;2.08;;;;;;;-140.79;100.00;63287.88;5031878;28;20025;-51
2021/11/28 09:15:34;;;;;;;3.63;2.50;;;;;;;-140.79;100.00;63287.88;5031772;28;20471;-52
2021/11/28 09:18:11;;;;;;;3.20;2.30;;;;;;;-140.79;100.00;63287.88;5031658;28;20029;-51
2021/11/28 09:20:38;;;;;;;3.05;2.13;;;;;;;-140.79;100.00;63287.88;5031898;28;20145;-52
2021/11/28 09:25:30;;;;;;;3.63;2.22;;;;;;;-140.79;100.00;63287.88;5032044;28;20026;-54
2021/11/28 09:27:57;;;;;;;4.20;2.13;;;;;;;-140.79;100.00;63287.88;5030436;28;20446;-51
2021/11/28 09:30:26;;;;;;;3.58;2.00;;;;;;;-140.79;100.00;63287.88;5031521;28;20021;-51
2021/11/28 09:32:53;;;;;;;5.43;2.20;;;;;;;-140.79;100.00;63287.88;5031592;28;20018;-52
2021/11/28 09:35:19;;;;;;;3.83;2.58;;;;;;;-140.79;100.00;63287.88;5031333;28;20069;-53
2021/11/28 09:37:44;;;;;;;2.42;1.90;;;;;;;-140.79;100.00;63287.88;5031423;28;20034;-52
2021/11/28 09:40:10;;;;;;;3.40;2.13;;;;;;;-140.79;100.00;63287.88;5031108;28;20017;-51
2021/11/28 09:42:38;;;;;;;3.70;2.47;;;;;;;-140.79;100.00;63287.88;5031222;28;20010;-51
2021/11/28 09:45:05;;;;;;;3.10;2.20;;;;;;;-140.79;100.00;63287.88;5030890;28;20025;-53
2021/11/28 09:47:31;;;;;;;2.90;2.08;;;;;;;-140.79;100.00;63287.88;5031352;28;20030;-53
2021/11/28 09:49:57;;;;;;;3.53;2.10;;;;;;;-140.79;100.00;63287.88;5031301;28;20491;-53
2021/11/28 09:52:24;;;;;;;3.55;1.95;;;;;;;-140.79;100.00;63287.88;5031025;28;20030;-53
2021/11/28 09:54:52;;;;;;;2.97;2.20;;;;;;;-140.79;100.00;63287.88;5031053;28;20071;-54
2021/11/28 09:57:19;;;;;;;3.13;2.10;;;;;;;-140.79;100.00;63287.88;5030804;28;20037;-53
2021/11/28 09:59:49;;;;;;;7.40;2.35;;;;;;;-140.79;100.00;63287.88;5029778;28;20496;-53
2021/11/28 10:02:18;;;;;;;4.10;2.10;;;;;;;-140.79;100.00;63287.88;5031207;28;20033;-52
2021/11/28 10:04:44;;;;;;;3.30;1.88;;;;;;;-140.79;100.00;63287.88;5030838;28;20112;-52
2021/11/28 10:07:12;;;;;;;3.13;2.05;;;;;;;-140.79;100.00;63287.88;5046074;28;20061;-53
2021/11/28 10:09:37;;;;;;;2.75;1.90;;;;;;;-140.79;100.00;63287.88;5030830;28;20025;-54
2021/11/28 10:12:15;;;;;;;2.60;1.92;;;;;;;-140.79;100.00;63287.88;5030991;28;20021;-53
2021/11/28 10:14:42;;;;;;;2.38;2.08;;;;;;;-140.79;100.00;63287.88;5030650;28;20584;-54
2021/11/28 10:17:08;;;;;;;3.30;2.05;;;;;;;-140.79;100.00;63287.88;5030458;28;20182;-51
2021/11/28 10:19:36;;;;;;;3.17;2.20;;;;;;;-140.79;100.00;63287.88;5030483;28;20029;-54
2021/11/28 10:22:01;;;;;;;2.63;1.70;;;;;;;-140.79;100.00;63287.88;5030597;28;20099;-53
2021/11/28 10:24:27;;;;;;;2.72;1.90;;;;;;;-140.79;100.00;63287.88;5029317;28;20495;-51
2021/11/28 10:26:52;;;;;;;4.22;2.15;;;;;;;-140.79;100.00;63287.88;5029298;28;20381;-53
2021/11/28 10:29:18;;;;;;;2.70;2.00;;;;;;;-140.79;100.00;63287.88;5030324;28;20488;-54
2021/11/28 10:31:47;;;;;;;3.45;2.10;;;;;;;-140.79;100.00;63287.88;5030527;28;20494;-53
2021/11/28 10:34:21;;;;;;;2.75;1.75;;;;;;;-140.79;100.00;63287.88;5030531;28;20083;-52
2021/11/28 10:36:48;;;;;;;3.25;2.20;;;;;;;-140.79;100.00;63287.88;5030346;28;20069;-51
2021/11/28 10:39:19;;;;;;;2.55;1.88;;;;;;;-140.79;100.00;63287.88;5030409;28;20037;-53
2021/11/28 10:41:46;;;;;;;3.92;2.17;;;;;;;-140.79;100.00;63287.88;5030328;28;20048;-53
2021/11/28 10:44:12;;;;;;;3.42;2.13;;;;;;;-140.79;100.00;63287.88;5030307;28;20021;-52
2021/11/28 10:46:37;;;;;;;2.58;1.80;;;;;;;-140.79;100.00;63287.88;5030350;28;20029;-53
2021/11/28 10:49:09;;;;;;;3.13;2.13;;;;;;;-140.79;100.00;63287.88;5030261;28;20014;-50
2021/11/28 10:51:37;;;;;;;4.00;1.95;;;;;;;-140.79;100.00;63287.88;5030180;28;20031;-52
2021/11/28 10:54:19;;;;;;;4.15;2.38;;;;;;;-140.79;100.00;63287.88;5030266;28;20021;-52
2021/11/28 10:56:46;;;;;;;2.97;1.98;;;;;;;-140.79;100.00;63287.88;5029266;28;20053;-51
2021/11/28 10:59:19;;;;;;;3.42;1.88;;;;;;;-140.79;100.00;63287.88;5034062;28;20456;-54
2021/11/28 11:01:44;;;;;;;3.60;1.90;;;;;;;-140.79;100.00;63287.88;5034341;28;20025;-51
2021/11/28 11:04:20;;;;;;;3.33;1.98;;;;;;;-140.79;100.00;63287.88;5033085;28;20499;-51
2021/11/28 11:07:11;;;;;;;4.03;2.22;;;;;;;-140.79;100.00;63287.88;5034469;28;20474;-54
2021/11/28 11:09:44;;;;;;;3.63;2.08;;;;;;;-140.79;100.00;63287.88;5025695;28;20033;-51